createdAt,value
2022-10-18T00:02:23.209Z,14.07
2022-10-18T00:04:49.949Z,14.15
2022-10-18T00:07:16.668Z,14.20
2022-10-18T00:09:43.449Z,14.27
2022-10-18T00:12:10.102Z,14.15
2022-10-18T00:14:36.658Z,14.17
2022-10-18T00:17:03.217Z,14.11
2022-10-18T00:19:29.755Z,14.08
2022-10-18T00:21:56.440Z,14.09
2022-10-18T00:24:23.186Z,14.15
2022-10-18T00:26:49.819Z,14.12
2022-10-18T00:29:16.573Z,14.22
2022-10-18T00:31:44.097Z,14.19
2022-10-18T00:34:13.988Z,14.15
2022-10-18T00:36:41.406Z,14.14
2022-10-18T00:39:09.823Z,14.25
2022-10-18T00:41:38.057Z,14.21
2022-10-18T00:44:26.632Z,14.18
2022-10-18T00:46:58.431Z,14.11
2022-10-18T00:49:35.059Z,14.18
2022-10-18T00:52:09.412Z,14.19
2022-10-18T00:54:40.712Z,14.14
2022-10-18T00:57:07.866Z,14.15
2022-10-18T00:59:35.276Z,14.13
2022-10-18T01:02:02.211Z,14.19
2022-10-18T01:04:28.904Z,14.20
2022-10-18T01:22:51.924Z,14.11
2022-10-18T01:25:41.979Z,14.11
2022-10-18T01:28:31.226Z,14.08
2022-10-18T01:31:05.550Z,14.09
2022-10-18T01:33:43.018Z,14.04
2022-10-18T01:36:23.723Z,13.88
2022-10-18T01:38:54.508Z,14.03
2022-10-18T01:41:24.526Z,14.09
2022-10-18T01:44:01.814Z,14.11
2022-10-18T01:46:29.843Z,14.08
2022-10-18T01:48:57.146Z,14.16
2022-10-18T01:51:29.558Z,14.19
2022-10-18T01:53:57.338Z,14.23
2022-10-18T01:56:42.659Z,14.23
2022-10-18T01:59:36.206Z,14.22
2022-10-18T02:02:16.609Z,14.05
2022-10-18T02:05:02.602Z,14.11
2022-10-18T02:08:05.667Z,14.14
2022-10-18T02:10:55.785Z,14.15
2022-10-18T02:13:25.644Z,14.16
2022-10-18T02:15:58.571Z,14.16
2022-10-18T02:18:31.809Z,14.16
2022-10-18T02:21:00.792Z,14.10
2022-10-18T02:23:27.544Z,14.02
2022-10-18T02:25:54.679Z,14.04
2022-10-18T02:28:22.252Z,13.98
2022-10-18T02:31:13.950Z,13.99
2022-10-18T02:33:53.380Z,14.05
2022-10-18T02:36:28.412Z,14.07
2022-10-18T02:39:02.898Z,14.03
2022-10-18T02:41:31.129Z,14.11
2022-10-18T02:43:57.961Z,14.03
2022-10-18T02:46:24.618Z,14.03
2022-10-18T02:48:51.513Z,14.05
2022-10-18T02:51:18.186Z,14.07
2022-10-18T02:53:44.680Z,14.09
2022-10-18T02:56:12.008Z,14.11
2022-10-18T02:58:38.529Z,14.15
2022-10-18T03:01:05.210Z,14.14
2022-10-18T03:03:31.765Z,14.12
2022-10-18T03:05:58.439Z,14.08
2022-10-18T03:08:25.390Z,14.07
2022-10-18T03:10:51.988Z,14.08
2022-10-18T03:13:18.827Z,14.04
2022-10-18T03:15:46.349Z,14.03
2022-10-18T03:18:12.871Z,14.03
2022-10-18T03:20:39.982Z,14.11
2022-10-18T03:23:07.322Z,14.03
2022-10-18T03:25:34.565Z,14.05
2022-10-18T03:28:01.410Z,13.97
2022-10-18T03:30:28.120Z,13.97
2022-10-18T03:32:54.671Z,13.89
2022-10-18T03:35:21.548Z,13.84
2022-10-18T03:37:48.413Z,13.83
2022-10-18T03:40:15.069Z,13.83
2022-10-18T03:42:41.632Z,13.86
2022-10-18T03:45:08.802Z,13.87
2022-10-18T03:47:35.412Z,13.85
2022-10-18T03:50:01.978Z,13.84
2022-10-18T03:52:28.730Z,13.76
2022-10-18T03:54:55.403Z,13.58
2022-10-18T03:57:21.992Z,13.59
2022-10-18T03:59:48.893Z,13.62
2022-10-18T04:02:15.509Z,13.70
2022-10-18T04:04:42.095Z,13.59
2022-10-18T04:07:08.669Z,13.62
2022-10-18T04:09:35.310Z,13.71
2022-10-18T04:12:01.907Z,13.71
2022-10-18T04:14:28.483Z,13.69
2022-10-18T04:16:55.020Z,13.70
2022-10-18T04:19:21.591Z,13.69
2022-10-18T04:21:48.215Z,13.65
2022-10-18T04:24:17.031Z,13.61
2022-10-18T04:26:43.744Z,13.63
2022-10-18T04:29:10.371Z,13.46
2022-10-18T04:31:37.122Z,13.48
2022-10-18T04:34:04.524Z,13.41
2022-10-18T04:36:31.681Z,13.39
2022-10-18T04:38:58.284Z,13.32
2022-10-18T04:41:24.775Z,13.42
2022-10-18T04:43:51.389Z,13.46
2022-10-18T04:46:17.939Z,13.49
2022-10-18T04:48:44.553Z,13.51
2022-10-18T04:51:11.109Z,13.47
2022-10-18T04:53:37.693Z,13.46
2022-10-18T04:56:04.334Z,13.51
2022-10-18T04:58:30.868Z,13.43
2022-10-18T05:00:57.507Z,13.44
2022-10-18T05:03:25.278Z,13.50
2022-10-18T05:06:06.999Z,13.48
2022-10-18T05:08:35.556Z,13.45
2022-10-18T05:11:03.491Z,13.34
2022-10-18T05:13:30.637Z,13.31
2022-10-18T05:16:00.451Z,13.45
2022-10-18T05:18:27.360Z,13.53
2022-10-18T05:20:53.885Z,13.55
2022-10-18T05:23:20.437Z,13.54
2022-10-18T05:25:47.179Z,13.54
2022-10-18T05:28:38.342Z,13.57
2022-10-18T05:31:02.687Z,13.54
2022-10-18T05:33:29.426Z,13.53
2022-10-18T05:35:56.353Z,13.54
2022-10-18T05:38:23.447Z,13.54
2022-10-18T05:40:50.161Z,13.56
2022-10-18T05:43:17.868Z,13.54
2022-10-18T05:45:49.167Z,13.56
2022-10-18T05:48:16.081Z,13.58
2022-10-18T05:50:43.126Z,13.56
2022-10-18T05:53:12.557Z,13.56
2022-10-18T05:55:51.252Z,13.54
2022-10-18T05:58:17.858Z,13.51
2022-10-18T06:00:44.506Z,13.53
2022-10-18T06:03:11.007Z,13.59
2022-10-18T06:05:40.498Z,13.58
2022-10-18T06:08:10.224Z,13.58
2022-10-18T06:10:40.403Z,13.56
2022-10-18T06:13:06.924Z,13.58
2022-10-18T06:15:33.543Z,13.56
2022-10-18T06:18:00.137Z,13.58
2022-10-18T06:20:26.668Z,13.63
2022-10-18T06:22:53.768Z,13.65
2022-10-18T06:25:20.316Z,13.68
2022-10-18T06:27:46.916Z,13.74
2022-10-18T06:30:13.574Z,13.74
2022-10-18T06:32:40.097Z,13.74
2022-10-18T06:35:07.136Z,13.74
2022-10-18T06:37:35.785Z,13.76
2022-10-18T06:40:02.810Z,13.71
2022-10-18T06:42:29.346Z,13.73
2022-10-18T06:44:56.033Z,13.75
2022-10-18T06:47:22.725Z,13.74
2022-10-18T06:49:49.378Z,13.75
2022-10-18T06:52:20.781Z,13.77
2022-10-18T06:54:47.322Z,13.80
2022-10-18T06:57:13.822Z,13.85
2022-10-18T06:59:40.526Z,13.86
2022-10-18T07:02:07.467Z,13.84
2022-10-18T07:04:34.163Z,13.84
2022-10-18T07:07:00.684Z,13.84
2022-10-18T07:09:27.275Z,13.87
2022-10-18T07:11:54.128Z,13.78
2022-10-18T07:14:20.625Z,13.82
2022-10-18T07:16:47.204Z,13.79
2022-10-18T07:19:14.981Z,13.79
2022-10-18T07:21:41.642Z,13.77
2022-10-18T07:24:08.198Z,13.77
2022-10-18T07:26:35.315Z,13.71
2022-10-18T07:29:06.855Z,13.76
2022-10-18T07:31:34.260Z,13.75
2022-10-18T07:34:01.308Z,13.83
2022-10-18T07:36:27.874Z,13.87
2022-10-18T07:38:54.827Z,13.82
2022-10-18T07:41:22.132Z,13.80
2022-10-18T07:43:51.067Z,13.80
2022-10-18T07:46:19.070Z,13.72
2022-10-18T07:48:46.078Z,13.84
2022-10-18T07:51:13.578Z,13.72
2022-10-18T07:53:40.369Z,13.85
2022-10-18T07:56:11.663Z,13.97
2022-10-18T07:58:38.224Z,13.83
2022-10-18T08:01:06.564Z,13.99
2022-10-18T08:03:33.796Z,14.23
2022-10-18T08:06:00.363Z,14.21
2022-10-18T08:08:27.477Z,14.41
2022-10-18T08:10:54.659Z,14.28
2022-10-18T08:13:21.412Z,14.35
2022-10-18T08:15:47.977Z,14.41
2022-10-18T08:18:14.573Z,14.28
2022-10-18T08:20:45.616Z,14.44
2022-10-18T08:23:12.805Z,14.32
2022-10-18T08:25:39.444Z,14.63
2022-10-18T08:28:06.642Z,15.04
2022-10-18T08:30:34.698Z,15.19
2022-10-18T08:33:02.205Z,15.32
2022-10-18T08:35:28.751Z,14.96
2022-10-18T08:37:55.447Z,14.82
2022-10-18T08:40:22.035Z,14.84
2022-10-18T08:43:05.925Z,14.81
2022-10-18T08:45:42.419Z,14.71
2022-10-18T08:48:21.964Z,14.65
2022-10-18T08:50:49.963Z,14.50
2022-10-18T08:53:45.546Z,14.52
2022-10-18T08:56:16.246Z,14.56
2022-10-18T08:58:46.740Z,14.53
2022-10-18T09:01:27.451Z,14.61
2022-10-18T09:04:21.955Z,14.60
2022-10-18T09:06:51.159Z,14.68
2022-10-18T09:10:00.468Z,14.79
2022-10-18T09:12:59.657Z,14.95
2022-10-18T09:15:50.423Z,15.13
2022-10-18T09:18:47.501Z,15.02
2022-10-18T09:21:25.386Z,14.92
2022-10-18T09:24:05.853Z,14.68
2022-10-18T09:26:43.357Z,14.55
2022-10-18T09:29:29.508Z,14.54
2022-10-18T09:31:58.667Z,14.67
2022-10-18T09:34:55.261Z,14.88
2022-10-18T09:37:24.475Z,14.81
2022-10-18T09:39:55.414Z,14.59
2022-10-18T09:42:29.415Z,14.86
2022-10-18T09:45:01.467Z,14.98
2022-10-18T09:47:35.759Z,14.99
2022-10-18T09:50:15.058Z,14.88
2022-10-18T09:52:50.722Z,14.79
2022-10-18T09:55:30.955Z,14.61
2022-10-18T09:58:01.907Z,14.73
2022-10-18T10:00:33.299Z,14.75
2022-10-18T10:03:02.199Z,14.90
2022-10-18T10:05:28.842Z,15.02
2022-10-18T10:07:59.961Z,15.13
2022-10-18T10:10:30.045Z,15.12
2022-10-18T10:13:15.784Z,15.19
2022-10-18T10:16:01.471Z,15.28
2022-10-18T10:18:31.890Z,15.26
2022-10-18T10:21:01.534Z,15.34
2022-10-18T10:23:33.145Z,15.39
2022-10-18T10:26:21.499Z,15.69
2022-10-18T10:28:49.073Z,15.34
2022-10-18T10:31:24.530Z,15.66
2022-10-18T10:34:15.362Z,15.88
2022-10-18T10:36:53.488Z,15.72
2022-10-18T10:39:22.005Z,15.90
2022-10-18T10:41:54.090Z,15.93
2022-10-18T10:44:23.662Z,15.88
2022-10-18T10:46:52.127Z,15.55
2022-10-18T10:52:33.954Z,15.78
2022-10-18T10:55:23.548Z,15.85
2022-10-18T10:57:51.725Z,15.76
2022-10-18T11:00:38.359Z,15.72
2022-10-18T11:03:28.644Z,15.69
2022-10-18T11:05:58.054Z,15.83
2022-10-18T11:08:28.280Z,16.00
2022-10-18T11:11:22.865Z,16.12
2022-10-18T11:14:07.333Z,16.36
2022-10-18T11:17:12.989Z,16.43
2022-10-18T11:20:17.942Z,16.27
2022-10-18T11:22:56.470Z,16.37
2022-10-18T11:25:28.628Z,16.08
2022-10-18T11:28:23.958Z,16.32
2022-10-18T11:31:11.210Z,16.26
2022-10-18T11:34:14.821Z,16.27
2022-10-18T11:37:26.395Z,16.31
2022-10-18T11:40:04.846Z,16.12
2022-10-18T11:42:57.988Z,16.33
2022-10-18T11:48:12.354Z,16.92
2022-10-18T11:50:54.593Z,17.06
2022-10-18T11:53:23.955Z,17.40
2022-10-18T11:56:11.575Z,17.50
2022-10-18T11:58:42.494Z,17.55
2022-10-18T12:01:26.248Z,17.46
2022-10-18T12:03:59.316Z,17.72
2022-10-18T12:06:37.836Z,17.87
2022-10-18T12:09:14.625Z,17.98
2022-10-18T12:11:54.919Z,17.59
2022-10-18T12:14:59.258Z,17.62
2022-10-18T12:17:46.065Z,17.09
2022-10-18T12:20:20.854Z,16.90
2022-10-18T12:22:55.613Z,16.37
2022-10-18T12:25:22.493Z,16.38
2022-10-18T12:27:56.812Z,16.24
2022-10-18T12:30:28.244Z,16.14
2022-10-18T12:33:26.505Z,16.03
2022-10-18T12:35:59.847Z,16.03
2022-10-18T12:38:31.837Z,16.17
2022-10-18T12:40:59.342Z,15.98
2022-10-18T12:43:38.370Z,15.89
2022-10-18T12:46:13.061Z,16.12
2022-10-18T12:48:43.299Z,16.19
2022-10-18T12:51:23.761Z,16.32
2022-10-18T12:54:07.059Z,16.68
2022-10-18T12:56:41.857Z,16.65
2022-10-18T12:59:14.650Z,16.34
2022-10-18T13:01:50.366Z,16.59
2022-10-18T13:04:29.339Z,16.49
2022-10-18T13:07:04.761Z,16.43
2022-10-18T13:09:35.402Z,16.46
2022-10-18T13:12:10.931Z,16.44
2022-10-18T13:15:12.399Z,16.21
2022-10-18T13:17:56.282Z,16.05
2022-10-18T13:20:27.225Z,16.30
2022-10-18T13:23:12.998Z,16.25
2022-10-18T13:26:17.763Z,16.33
2022-10-18T13:29:11.049Z,16.44
2022-10-18T13:31:47.824Z,16.50
2022-10-18T13:34:23.728Z,16.43
2022-10-18T13:37:08.791Z,16.37
2022-10-18T13:39:36.452Z,16.48
2022-10-18T13:42:02.950Z,16.41
2022-10-18T13:44:31.871Z,16.40
2022-10-18T13:46:58.517Z,16.39
2022-10-18T13:49:30.970Z,16.23
2022-10-18T13:52:15.451Z,16.38
2022-10-18T13:54:48.125Z,16.35
2022-10-18T13:57:35.832Z,16.04
2022-10-18T14:00:44.839Z,16.00
2022-10-18T14:03:57.666Z,16.11
2022-10-18T14:06:41.143Z,16.18
2022-10-18T14:09:26.149Z,16.04
2022-10-18T14:12:20.390Z,16.04
2022-10-18T14:14:59.798Z,16.03
2022-10-18T14:20:20.836Z,16.17
2022-10-18T14:22:56.058Z,16.18
2022-10-18T14:25:27.930Z,16.19
2022-10-18T14:28:36.170Z,16.29
2022-10-18T14:31:19.479Z,16.27
2022-10-18T14:33:57.083Z,16.46
2022-10-18T14:36:27.134Z,16.41
2022-10-18T14:38:57.192Z,16.51
2022-10-18T14:41:32.763Z,16.47
2022-10-18T14:44:17.093Z,16.37
2022-10-18T14:46:50.671Z,16.55
2022-10-18T14:49:19.391Z,16.62
2022-10-18T14:51:50.155Z,16.81
2022-10-18T14:54:21.770Z,16.59
2022-10-18T14:56:49.722Z,16.64
2022-10-18T14:59:20.524Z,16.60
2022-10-18T15:02:00.112Z,16.39
2022-10-18T15:04:34.435Z,16.30
2022-10-18T15:07:06.233Z,16.09
2022-10-18T15:09:35.420Z,16.04
2022-10-18T15:12:07.102Z,16.22
2022-10-18T15:14:34.819Z,16.20
2022-10-18T15:17:30.577Z,15.99
2022-10-18T15:20:06.182Z,15.89
2022-10-18T15:22:34.042Z,15.95
2022-10-18T15:25:09.690Z,15.97
2022-10-18T15:27:40.056Z,15.91
2022-10-18T15:30:08.723Z,15.94
2022-10-18T15:32:35.582Z,15.79
2022-10-18T15:35:16.106Z,15.82
2022-10-18T15:37:46.202Z,15.81
2022-10-18T15:40:18.527Z,15.72
2022-10-18T15:42:45.580Z,15.66
2022-10-18T15:48:18.284Z,15.52
2022-10-18T15:50:47.662Z,15.45
2022-10-18T15:53:20.747Z,15.36
2022-10-18T15:55:50.647Z,15.30
2022-10-18T15:58:26.792Z,15.24
2022-10-18T16:00:58.198Z,15.21
2022-10-18T16:03:25.437Z,15.17
2022-10-18T16:06:07.217Z,15.22
2022-10-18T16:08:40.559Z,15.27
2022-10-18T16:11:24.750Z,15.31
2022-10-18T16:13:55.250Z,15.34
2022-10-18T16:16:27.236Z,15.34
2022-10-18T16:18:54.514Z,15.28
2022-10-18T16:21:30.185Z,15.18
2022-10-18T16:23:57.959Z,15.16
2022-10-18T16:26:25.846Z,15.18
2022-10-18T16:28:53.454Z,15.09
2022-10-18T16:31:26.055Z,15.03
2022-10-18T16:33:54.431Z,14.98
2022-10-18T16:36:24.301Z,14.80
2022-10-18T16:38:51.567Z,14.75
2022-10-18T16:41:18.555Z,14.73
2022-10-18T16:43:47.316Z,14.61
2022-10-18T16:46:23.243Z,14.48
2022-10-18T16:48:50.985Z,14.36
2022-10-18T16:51:17.903Z,14.20
2022-10-18T16:53:45.083Z,14.07
2022-10-18T16:56:17.895Z,14.08
2022-10-18T16:58:46.204Z,14.04
2022-10-18T17:01:14.778Z,13.96
2022-10-18T17:03:41.559Z,13.94
2022-10-18T17:06:15.619Z,13.98
2022-10-18T17:08:42.336Z,14.02
2022-10-18T17:11:10.810Z,14.02
2022-10-18T17:13:37.623Z,13.97
2022-10-18T17:16:05.390Z,13.91
2022-10-18T17:18:32.442Z,13.93
2022-10-18T17:21:03.071Z,13.91
2022-10-18T17:23:30.392Z,13.88
2022-10-18T17:26:05.503Z,13.89
2022-10-18T17:28:42.000Z,13.97
2022-10-18T17:31:08.605Z,14.02
2022-10-18T17:33:35.253Z,13.99
2022-10-18T17:36:02.099Z,13.94
2022-10-18T17:38:28.701Z,13.90
2022-10-18T17:40:57.174Z,13.84
2022-10-18T17:43:23.912Z,13.83
2022-10-18T17:45:54.861Z,13.86
2022-10-18T17:48:21.915Z,13.86
2022-10-18T17:50:48.481Z,13.87
2022-10-18T17:53:16.156Z,13.86
2022-10-18T17:55:42.662Z,13.92
2022-10-18T17:58:09.278Z,13.88
2022-10-18T18:00:35.944Z,13.86
2022-10-18T18:03:02.504Z,13.85
2022-10-18T18:05:34.201Z,13.83
2022-10-18T18:08:03.925Z,13.80
2022-10-18T18:10:33.480Z,13.76
2022-10-18T18:13:00.786Z,13.73
2022-10-18T18:15:27.465Z,13.71
2022-10-18T18:17:57.830Z,13.68
2022-10-18T18:20:26.185Z,13.67
2022-10-18T18:22:53.035Z,13.75
2022-10-18T18:25:19.706Z,13.77
2022-10-18T18:27:46.297Z,13.74
2022-10-18T18:30:12.918Z,13.67
2022-10-18T18:32:39.695Z,13.77
2022-10-18T18:35:06.627Z,13.74
2022-10-18T18:37:33.241Z,13.68
2022-10-18T18:39:59.971Z,13.72
2022-10-18T18:42:26.502Z,13.81
2022-10-18T18:44:53.030Z,13.77
2022-10-18T18:47:21.967Z,13.76
2022-10-18T18:49:49.074Z,13.74
2022-10-18T18:52:15.603Z,13.70
2022-10-18T18:54:42.217Z,13.63
2022-10-18T18:57:09.968Z,13.65
2022-10-18T18:59:36.514Z,13.63
2022-10-18T19:02:03.102Z,13.61
2022-10-18T19:04:29.798Z,13.69
2022-10-18T19:06:56.504Z,13.71
2022-10-18T19:09:23.920Z,13.67
2022-10-18T19:11:53.284Z,13.74
2022-10-18T19:16:53.797Z,13.64
2022-10-18T19:19:23.067Z,13.66
2022-10-18T19:21:52.269Z,13.57
2022-10-18T19:24:20.315Z,13.58
2022-10-18T19:26:52.370Z,13.56
2022-10-18T19:29:30.439Z,13.51
2022-10-18T19:31:59.569Z,13.46
2022-10-18T19:34:28.218Z,13.39
2022-10-18T19:36:55.418Z,13.37
2022-10-18T19:39:27.743Z,13.32
2022-10-18T19:41:56.310Z,13.33
2022-10-18T19:44:26.058Z,13.29
2022-10-18T19:46:53.166Z,13.25
2022-10-18T19:49:19.726Z,13.21
2022-10-18T19:51:46.773Z,13.16
2022-10-18T19:54:14.995Z,13.08
2022-10-18T19:56:42.348Z,13.02
2022-10-18T19:59:09.937Z,13.00
2022-10-18T20:01:36.857Z,12.94
2022-10-18T20:04:07.382Z,12.95
2022-10-18T20:06:34.835Z,12.85
2022-10-18T20:09:01.816Z,12.76
2022-10-18T20:11:29.873Z,12.76
2022-10-18T20:13:57.474Z,12.77
2022-10-18T20:16:28.705Z,12.71
2022-10-18T20:19:00.649Z,12.52
2022-10-18T20:21:29.665Z,12.45
2022-10-18T20:23:56.780Z,12.44
2022-10-18T20:26:25.479Z,12.40
2022-10-18T20:28:56.623Z,12.41
2022-10-18T20:31:25.457Z,12.32
2022-10-18T20:33:57.611Z,12.28
2022-10-18T20:36:24.493Z,12.24
2022-10-18T20:38:51.042Z,12.20
2022-10-18T20:41:21.479Z,12.16
2022-10-18T20:44:03.462Z,12.17
2022-10-18T20:46:31.732Z,12.12
2022-10-18T20:48:58.276Z,12.13
2022-10-18T20:51:24.957Z,12.08
2022-10-18T20:53:52.299Z,12.05
2022-10-18T20:56:27.204Z,12.04
2022-10-18T20:58:55.902Z,12.08
2022-10-18T21:01:25.805Z,12.04
2022-10-18T21:03:54.108Z,11.99
2022-10-18T21:06:30.726Z,12.02
2022-10-18T21:09:02.362Z,11.91
2022-10-18T21:11:30.606Z,11.90
2022-10-18T21:14:00.121Z,11.82
2022-10-18T21:16:27.136Z,11.86
2022-10-18T21:18:53.760Z,11.76
2022-10-18T21:21:25.766Z,11.71
2022-10-18T21:23:52.722Z,11.74
2022-10-18T21:26:24.777Z,11.74
2022-10-18T21:28:53.514Z,11.73
2022-10-18T21:31:34.912Z,11.74
2022-10-18T21:34:04.529Z,11.67
2022-10-18T21:36:33.114Z,11.66
2022-10-18T21:38:59.849Z,11.64
2022-10-18T21:41:26.514Z,11.56
2022-10-18T21:43:55.062Z,11.63
2022-10-18T21:46:23.502Z,11.66
2022-10-18T21:48:52.014Z,11.53
2022-10-18T21:51:21.443Z,11.51
2022-10-18T21:53:50.483Z,11.48
2022-10-18T21:56:35.718Z,11.43
2022-10-18T21:59:03.375Z,11.40
2022-10-18T22:01:35.587Z,11.48
2022-10-18T22:04:05.542Z,11.41
2022-10-18T22:09:07.253Z,11.34
2022-10-18T22:11:37.455Z,11.26
2022-10-18T22:14:04.175Z,11.32
2022-10-18T22:16:30.958Z,11.33
2022-10-18T22:18:59.813Z,11.29
2022-10-18T22:21:27.510Z,11.31
2022-10-18T22:23:57.163Z,11.23
2022-10-18T22:26:30.279Z,11.27
2022-10-18T22:29:02.489Z,11.22
2022-10-18T22:31:32.538Z,11.18
2022-10-18T22:34:01.687Z,11.24
2022-10-18T22:36:28.311Z,11.16
2022-10-18T22:38:54.935Z,11.07
2022-10-18T22:41:21.803Z,11.04
2022-10-18T22:43:50.609Z,11.06
2022-10-18T22:46:17.900Z,11.13
2022-10-18T22:48:45.067Z,11.08
2022-10-18T22:51:12.335Z,11.02
2022-10-18T22:53:39.963Z,10.99
2022-10-18T22:56:09.161Z,11.06
2022-10-18T22:58:35.702Z,11.00
2022-10-18T23:01:06.576Z,10.95
2022-10-18T23:03:33.554Z,10.89
2022-10-18T23:06:00.502Z,10.88
2022-10-18T23:08:27.820Z,10.88
2022-10-18T23:10:58.326Z,10.89
2022-10-18T23:13:26.426Z,10.86
2022-10-18T23:15:53.274Z,10.88
2022-10-18T23:18:19.801Z,10.85
2022-10-18T23:20:46.331Z,10.82
2022-10-18T23:23:13.491Z,10.78
2022-10-18T23:25:40.262Z,10.76
2022-10-18T23:28:07.055Z,10.72
2022-10-18T23:30:33.960Z,10.74
2022-10-18T23:33:00.913Z,10.66
2022-10-18T23:35:28.841Z,10.55
2022-10-18T23:37:55.376Z,10.56
2022-10-18T23:40:21.893Z,10.56
2022-10-18T23:42:48.446Z,10.58
2022-10-18T23:45:15.071Z,10.55
2022-10-18T23:47:41.667Z,10.51
2022-10-18T23:50:08.673Z,10.56
2022-10-18T23:52:35.437Z,10.47
2022-10-18T23:55:01.952Z,10.50
2022-10-18T23:57:28.692Z,10.52
2022-10-18T23:59:55.377Z,10.55
